createdAt,value
2022-09-11T00:01:33.442Z,15.40
2022-09-11T00:04:00.200Z,15.40
2022-09-11T00:06:30.035Z,15.30
2022-09-11T00:09:01.604Z,15.30
2022-09-11T00:11:35.899Z,15.30
2022-09-11T00:14:02.820Z,15.30
2022-09-11T00:16:35.581Z,15.20
2022-09-11T00:19:07.741Z,15.30
2022-09-11T00:21:35.127Z,15.30
2022-09-11T00:24:02.320Z,15.30
2022-09-11T00:26:29.400Z,15.20
2022-09-11T00:28:57.191Z,15.20
2022-09-11T00:31:28.392Z,15.20
2022-09-11T00:33:56.648Z,15.20
2022-09-11T00:36:35.707Z,15.20
2022-09-11T00:39:03.417Z,15.20
2022-09-11T00:41:38.186Z,15.20
2022-09-11T00:44:15.905Z,15.10
2022-09-11T00:47:05.778Z,15.10
2022-09-11T00:49:41.655Z,15.10
2022-09-11T00:52:51.218Z,15.10
2022-09-11T00:55:27.176Z,15.00
2022-09-11T00:58:18.872Z,14.90
2022-09-11T01:00:46.191Z,15.00
2022-09-11T01:03:13.427Z,14.90
2022-09-11T01:05:44.341Z,14.90
2022-09-11T01:08:12.888Z,14.90
2022-09-11T01:11:45.983Z,14.90
2022-09-11T01:14:52.976Z,14.80
2022-09-11T01:17:35.148Z,14.80
2022-09-11T01:20:35.506Z,14.80
2022-09-11T01:23:56.131Z,14.80
2022-09-11T01:26:43.005Z,14.80
2022-09-11T01:29:35.684Z,14.70
2022-09-11T01:32:22.495Z,14.70
2022-09-11T01:35:20.922Z,14.70
2022-09-11T01:37:59.788Z,14.70
2022-09-11T01:40:37.093Z,14.70
2022-09-11T01:43:13.696Z,14.60
2022-09-11T01:45:45.840Z,14.60
2022-09-11T01:48:19.391Z,14.60
2022-09-11T01:50:49.852Z,14.60
2022-09-11T01:53:21.899Z,14.60
2022-09-11T01:56:02.584Z,14.60
2022-09-11T01:58:36.805Z,14.50
2022-09-11T02:01:23.023Z,14.50
2022-09-11T02:04:24.409Z,14.50
2022-09-11T02:07:12.809Z,14.50
2022-09-11T02:09:56.276Z,14.50
2022-09-11T02:12:33.427Z,14.40
2022-09-11T02:15:00.883Z,14.40
2022-09-11T02:17:54.976Z,14.40
2022-09-11T02:20:26.948Z,14.40
2022-09-11T02:22:53.782Z,14.30
2022-09-11T02:25:21.254Z,14.30
2022-09-11T02:27:47.983Z,14.30
2022-09-11T02:30:15.037Z,14.30
2022-09-11T02:32:44.300Z,14.30
2022-09-11T02:35:12.070Z,14.30
2022-09-11T02:38:30.392Z,14.30
2022-09-11T02:41:18.103Z,14.30
2022-09-11T02:44:10.179Z,14.30
2022-09-11T02:46:59.366Z,14.30
2022-09-11T02:50:10.311Z,14.30
2022-09-11T02:53:10.550Z,14.30
2022-09-11T02:56:00.605Z,14.30
2022-09-11T02:58:37.483Z,14.30
2022-09-11T03:01:05.049Z,14.20
2022-09-11T03:03:46.352Z,14.20
2022-09-11T03:06:24.432Z,14.20
2022-09-11T03:08:51.479Z,14.20
2022-09-11T03:11:19.896Z,14.20
2022-09-11T03:13:48.518Z,14.10
2022-09-11T03:16:16.410Z,14.10
2022-09-11T03:18:44.048Z,14.10
2022-09-11T03:21:11.709Z,14.10
2022-09-11T03:23:38.810Z,14.10
2022-09-11T03:26:05.680Z,14.10
2022-09-11T03:28:34.232Z,14.10
2022-09-11T03:31:08.737Z,14.10
2022-09-11T03:33:37.264Z,14.10
2022-09-11T03:36:04.226Z,14.00
2022-09-11T03:38:31.271Z,14.00
2022-09-11T03:40:58.839Z,14.00
2022-09-11T03:43:25.555Z,14.00
2022-09-11T03:45:52.333Z,14.00
2022-09-11T03:48:19.513Z,14.00
2022-09-11T03:50:47.672Z,14.00
2022-09-11T03:53:16.179Z,14.00
2022-09-11T03:55:46.379Z,14.00
2022-09-11T03:58:14.036Z,14.00
2022-09-11T04:00:44.251Z,13.90
2022-09-11T04:03:16.148Z,13.80
2022-09-11T04:05:56.912Z,13.80
2022-09-11T04:08:23.675Z,13.80
2022-09-11T04:10:57.695Z,13.80
2022-09-11T04:13:37.060Z,13.80
2022-09-11T04:16:12.623Z,13.80
2022-09-11T04:18:43.658Z,13.70
2022-09-11T04:21:14.480Z,13.70
2022-09-11T04:23:41.973Z,13.60
2022-09-11T04:26:19.355Z,13.60
2022-09-11T04:28:50.932Z,13.60
2022-09-11T04:31:19.940Z,13.70
2022-09-11T04:33:48.503Z,13.60
2022-09-11T04:36:19.133Z,13.70
2022-09-11T04:38:47.845Z,13.60
2022-09-11T04:41:16.344Z,13.60
2022-09-11T04:43:43.561Z,13.50
2022-09-11T04:46:16.959Z,13.50
2022-09-11T04:48:51.585Z,13.40
2022-09-11T04:51:32.308Z,13.50
2022-09-11T04:54:01.064Z,13.50
2022-09-11T04:56:39.985Z,13.50
2022-09-11T04:59:15.995Z,13.50
2022-09-11T05:01:48.392Z,13.40
2022-09-11T05:04:21.684Z,13.40
2022-09-11T05:06:50.923Z,13.40
2022-09-11T05:09:19.382Z,13.40
2022-09-11T05:11:48.239Z,13.50
2022-09-11T05:14:15.843Z,13.50
2022-09-11T05:16:45.456Z,13.50
2022-09-11T05:19:14.198Z,13.50
2022-09-11T05:21:43.532Z,13.50
2022-09-11T05:24:10.372Z,13.60
2022-09-11T05:26:38.181Z,13.60
2022-09-11T05:29:11.869Z,13.60
2022-09-11T05:31:47.648Z,13.60
2022-09-11T05:34:17.087Z,13.60
2022-09-11T05:36:45.820Z,13.70
2022-09-11T05:39:12.591Z,13.70
2022-09-11T05:41:40.034Z,13.60
2022-09-11T05:44:07.370Z,13.60
2022-09-11T05:46:36.577Z,13.70
2022-09-11T05:49:03.765Z,13.80
2022-09-11T05:51:33.637Z,13.80
2022-09-11T05:54:00.511Z,13.80
2022-09-11T05:56:28.325Z,13.80
2022-09-11T05:58:58.866Z,13.90
2022-09-11T06:01:32.667Z,13.90
2022-09-11T06:04:12.337Z,14.00
2022-09-11T06:06:41.421Z,14.10
2022-09-11T06:09:08.491Z,14.20
2022-09-11T06:11:35.536Z,14.20
2022-09-11T06:14:03.084Z,14.10
2022-09-11T06:16:31.440Z,14.10
2022-09-11T06:19:04.728Z,14.30
2022-09-11T06:21:31.641Z,14.30
2022-09-11T06:24:05.606Z,14.40
2022-09-11T06:26:32.738Z,14.40
2022-09-11T06:29:00.646Z,14.40
2022-09-11T06:31:27.701Z,14.50
2022-09-11T06:33:55.520Z,14.60
2022-09-11T06:36:26.964Z,14.70
2022-09-11T06:38:57.968Z,14.70
2022-09-11T06:41:27.701Z,14.80
2022-09-11T06:44:01.701Z,14.90
2022-09-11T06:46:30.009Z,15.00
2022-09-11T06:48:58.310Z,15.00
2022-09-11T06:51:28.107Z,15.10
2022-09-11T06:53:59.237Z,15.20
2022-09-11T06:56:32.293Z,15.30
2022-09-11T06:59:00.759Z,15.40
2022-09-11T07:01:28.527Z,15.50
2022-09-11T07:04:02.656Z,15.60
2022-09-11T07:06:32.160Z,15.70
2022-09-11T07:09:02.497Z,15.70
2022-09-11T07:11:55.480Z,15.80
2022-09-11T07:14:25.308Z,15.80
2022-09-11T07:16:58.716Z,15.80
2022-09-11T07:19:25.877Z,15.90
2022-09-11T07:21:52.863Z,16.10
2022-09-11T07:24:21.580Z,16.10
2022-09-11T07:26:49.240Z,16.30
2022-09-11T07:29:26.661Z,16.40
2022-09-11T07:31:55.776Z,16.50
2022-09-11T07:34:22.636Z,16.60
2022-09-11T07:36:51.714Z,16.70
2022-09-11T07:39:19.208Z,16.70
2022-09-11T07:41:51.792Z,16.80
2022-09-11T07:44:24.430Z,16.70
2022-09-11T07:46:52.146Z,16.80
2022-09-11T07:49:19.136Z,16.90
2022-09-11T07:51:46.269Z,16.90
2022-09-11T07:54:16.523Z,16.90
2022-09-11T07:56:43.684Z,17.00
2022-09-11T07:59:11.728Z,17.00
2022-09-11T08:01:43.114Z,17.00
2022-09-11T08:04:14.225Z,17.20
2022-09-11T08:06:42.071Z,17.30
2022-09-11T08:09:20.220Z,17.40
2022-09-11T08:11:58.266Z,17.50
2022-09-11T08:14:27.690Z,17.60
2022-09-11T08:16:59.326Z,17.80
2022-09-11T08:19:28.553Z,17.90
2022-09-11T08:21:58.950Z,18.00
2022-09-11T08:24:27.320Z,18.10
2022-09-11T08:26:57.760Z,18.20
2022-09-11T08:29:26.284Z,18.30
2022-09-11T08:31:53.920Z,18.40
2022-09-11T08:34:22.189Z,18.50
2022-09-11T08:36:50.806Z,18.70
2022-09-11T08:39:17.957Z,18.70
2022-09-11T08:41:56.428Z,18.80
2022-09-11T08:44:37.272Z,18.80
2022-09-11T08:47:25.331Z,19.00
2022-09-11T08:50:18.023Z,19.00
2022-09-11T08:52:46.091Z,19.10
2022-09-11T08:55:24.158Z,19.10
2022-09-11T08:58:15.704Z,19.10
2022-09-11T09:00:58.417Z,19.00
2022-09-11T09:03:53.621Z,19.00
2022-09-11T09:06:45.847Z,19.00
2022-09-11T09:09:52.618Z,19.00
2022-09-11T09:13:02.134Z,19.00
2022-09-11T09:15:38.951Z,19.00
2022-09-11T09:18:17.637Z,19.10
2022-09-11T09:20:56.722Z,19.50
2022-09-11T09:23:31.776Z,19.50
2022-09-11T09:25:58.538Z,19.80
2022-09-11T09:28:43.135Z,19.80
2022-09-11T09:31:15.131Z,19.80
2022-09-11T09:34:21.915Z,19.70
2022-09-11T09:37:19.932Z,19.70
2022-09-11T09:39:47.674Z,19.80
2022-09-11T09:42:29.596Z,19.70
2022-09-11T09:45:32.877Z,19.60
2022-09-11T09:48:01.256Z,19.70
2022-09-11T09:50:35.768Z,19.80
2022-09-11T09:53:17.735Z,19.90
2022-09-11T09:55:47.409Z,20.00
2022-09-11T09:58:15.221Z,20.20
2022-09-11T10:00:42.172Z,20.10
2022-09-11T10:03:22.038Z,20.00
2022-09-11T10:05:54.624Z,19.90
2022-09-11T10:08:30.139Z,20.00
2022-09-11T10:11:02.261Z,19.90
2022-09-11T10:13:34.628Z,19.90
2022-09-11T10:16:19.921Z,19.90
2022-09-11T10:18:47.245Z,20.00
2022-09-11T10:21:29.561Z,20.00
2022-09-11T10:24:04.083Z,20.00
2022-09-11T10:26:43.448Z,20.30
2022-09-11T10:29:22.644Z,20.60
2022-09-11T10:31:52.953Z,20.80
2022-09-11T10:34:24.072Z,21.00
2022-09-11T10:37:00.873Z,21.30
2022-09-11T10:39:32.557Z,21.40
2022-09-11T10:42:12.428Z,21.30
2022-09-11T10:44:43.995Z,21.50
2022-09-11T10:47:30.817Z,21.70
2022-09-11T10:50:16.889Z,21.80
2022-09-11T10:53:17.787Z,21.40
2022-09-11T10:56:00.322Z,21.60
2022-09-11T10:58:39.087Z,21.80
2022-09-11T11:01:06.120Z,21.80
2022-09-11T11:03:33.196Z,21.80
2022-09-11T11:06:40.238Z,22.10
2022-09-11T11:09:44.375Z,22.00
2022-09-11T11:12:38.744Z,21.60
2022-09-11T11:15:34.319Z,21.30
2022-09-11T11:18:18.410Z,21.20
2022-09-11T11:21:19.890Z,21.10
2022-09-11T11:24:06.121Z,21.10
2022-09-11T11:27:22.953Z,21.20
2022-09-11T11:30:31.124Z,21.50
2022-09-11T11:33:26.183Z,21.80
2022-09-11T11:36:15.242Z,21.80
2022-09-11T11:39:02.699Z,22.20
2022-09-11T11:41:56.785Z,22.10
2022-09-11T11:44:48.285Z,22.20
2022-09-11T11:47:25.126Z,22.40
2022-09-11T11:50:16.216Z,22.30
2022-09-11T11:53:04.808Z,22.30
2022-09-11T11:56:04.188Z,22.30
2022-09-11T11:58:55.908Z,22.30
2022-09-11T12:02:03.220Z,22.40
2022-09-11T12:04:45.873Z,22.50
2022-09-11T12:07:29.091Z,22.50
2022-09-11T12:09:58.778Z,22.70
2022-09-11T12:12:33.751Z,22.90
2022-09-11T12:15:17.508Z,22.80
2022-09-11T12:17:45.916Z,22.70
2022-09-11T12:20:17.183Z,22.90
2022-09-11T12:22:50.103Z,22.90
2022-09-11T12:25:19.725Z,22.90
2022-09-11T12:27:46.442Z,22.90
2022-09-11T12:30:16.202Z,23.00
2022-09-11T12:32:47.816Z,22.80
2022-09-11T12:35:31.420Z,22.70
2022-09-11T12:38:18.855Z,22.60
2022-09-11T12:40:57.205Z,22.80
2022-09-11T12:43:34.804Z,22.80
2022-09-11T12:46:32.091Z,22.80
2022-09-11T12:49:22.019Z,22.50
2022-09-11T12:51:57.089Z,22.30
2022-09-11T12:54:28.696Z,22.50
2022-09-11T12:57:14.519Z,22.30
2022-09-11T12:59:51.143Z,22.20
2022-09-11T13:02:34.167Z,22.40
2022-09-11T13:05:03.820Z,22.50
2022-09-11T13:07:43.034Z,22.50
2022-09-11T13:10:33.235Z,22.50
2022-09-11T13:13:35.332Z,22.30
2022-09-11T13:16:23.512Z,22.30
2022-09-11T13:18:51.302Z,22.20
2022-09-11T13:21:23.208Z,22.00
2022-09-11T13:23:53.185Z,22.00
2022-09-11T13:26:32.672Z,22.10
2022-09-11T13:29:01.343Z,22.10
2022-09-11T13:31:38.664Z,22.20
2022-09-11T13:34:18.278Z,22.10
2022-09-11T13:36:47.098Z,22.20
2022-09-11T13:39:16.792Z,22.30
2022-09-11T13:41:47.111Z,22.20
2022-09-11T13:44:39.490Z,22.20
2022-09-11T13:47:21.092Z,22.10
2022-09-11T13:49:51.076Z,21.90
2022-09-11T13:52:21.940Z,21.90
2022-09-11T13:54:52.288Z,21.90
2022-09-11T13:57:25.716Z,22.00
2022-09-11T13:59:54.872Z,22.10
2022-09-11T14:02:47.369Z,22.10
2022-09-11T14:05:20.797Z,21.90
2022-09-11T14:08:04.797Z,21.90
2022-09-11T14:10:42.414Z,21.90
2022-09-11T14:13:47.164Z,21.90
2022-09-11T14:16:13.907Z,22.00
2022-09-11T14:19:10.879Z,22.10
2022-09-11T14:21:43.712Z,22.10
2022-09-11T14:24:33.438Z,22.20
2022-09-11T14:27:04.181Z,22.30
2022-09-11T14:29:34.123Z,22.30
2022-09-11T14:32:36.199Z,22.30
2022-09-11T14:35:07.100Z,22.20
2022-09-11T14:37:40.892Z,22.30
2022-09-11T14:40:17.290Z,22.40
2022-09-11T14:42:45.260Z,22.40
2022-09-11T14:45:24.765Z,22.30
2022-09-11T14:47:53.346Z,22.30
2022-09-11T14:50:21.130Z,22.30
2022-09-11T14:52:47.953Z,22.30
2022-09-11T14:55:20.389Z,22.30
2022-09-11T14:57:47.980Z,22.30
2022-09-11T15:00:20.038Z,22.30
2022-09-11T15:02:47.332Z,22.30
2022-09-11T15:05:37.928Z,22.30
2022-09-11T15:08:05.462Z,22.30
2022-09-11T15:10:32.939Z,22.30
2022-09-11T15:12:59.687Z,22.30
2022-09-11T15:15:28.996Z,22.30
2022-09-11T15:17:56.012Z,22.30
2022-09-11T15:20:25.080Z,22.30
2022-09-11T15:22:51.887Z,22.30
2022-09-11T15:25:18.618Z,22.20
2022-09-11T15:27:45.443Z,22.30
2022-09-11T15:30:12.592Z,22.30
2022-09-11T15:32:39.383Z,22.30
2022-09-11T15:35:09.563Z,22.40
2022-09-11T15:37:36.359Z,22.40
2022-09-11T15:40:04.061Z,22.40
2022-09-11T15:42:37.612Z,22.40
2022-09-11T15:45:07.817Z,22.40
2022-09-11T15:47:34.552Z,22.40
2022-09-11T15:50:01.763Z,22.40
2022-09-11T15:52:29.402Z,22.40
2022-09-11T15:54:56.582Z,22.40
2022-09-11T15:57:23.702Z,22.40
2022-09-11T15:59:51.484Z,22.40
2022-09-11T16:02:20.736Z,22.40
2022-09-11T16:04:51.644Z,22.40
2022-09-11T16:07:20.470Z,22.40
2022-09-11T16:09:47.252Z,22.30
2022-09-11T16:12:14.079Z,22.20
2022-09-11T16:14:41.486Z,22.20
2022-09-11T16:17:08.898Z,22.10
2022-09-11T16:19:36.308Z,22.10
2022-09-11T16:22:05.972Z,22.10
2022-09-11T16:24:38.220Z,22.00
2022-09-11T16:27:10.218Z,22.00
2022-09-11T16:30:15.443Z,22.00
2022-09-11T16:32:37.272Z,22.00
2022-09-11T16:35:04.667Z,21.90
2022-09-11T16:37:33.379Z,21.90
2022-09-11T16:40:02.450Z,21.90
2022-09-11T16:42:29.836Z,21.80
2022-09-11T16:44:56.703Z,21.80
2022-09-11T16:47:23.980Z,21.80
2022-09-11T16:50:06.454Z,21.80
2022-09-11T16:52:34.600Z,21.90
2022-09-11T16:55:01.835Z,21.90
2022-09-11T16:57:28.985Z,21.80
2022-09-11T16:59:55.819Z,21.80
2022-09-11T17:02:22.536Z,21.80
2022-09-11T17:04:49.325Z,21.70
2022-09-11T17:07:16.050Z,21.70
2022-09-11T17:09:43.720Z,21.60
2022-09-11T17:12:11.465Z,21.60
2022-09-11T17:14:38.851Z,21.60
2022-09-11T17:17:05.706Z,21.50
2022-09-11T17:19:32.407Z,21.50
2022-09-11T17:21:59.793Z,21.50
2022-09-11T17:24:26.630Z,21.40
2022-09-11T17:26:53.626Z,21.40
2022-09-11T17:29:20.390Z,21.30
2022-09-11T17:31:47.248Z,21.20
2022-09-11T17:34:14.603Z,21.10
2022-09-11T17:36:41.770Z,21.10
2022-09-11T17:39:09.447Z,21.00
2022-09-11T17:41:36.327Z,21.00
2022-09-11T17:44:03.823Z,20.90
2022-09-11T17:46:30.634Z,20.80
2022-09-11T17:48:57.401Z,20.80
2022-09-11T17:51:27.767Z,20.70
2022-09-11T17:53:57.995Z,20.60
2022-09-11T17:56:33.472Z,20.60
2022-09-11T17:59:00.592Z,20.50
2022-09-11T18:01:30.635Z,20.40
2022-09-11T18:03:59.025Z,20.30
2022-09-11T18:06:30.955Z,20.30
2022-09-11T18:09:01.543Z,20.20
2022-09-11T18:11:30.313Z,20.10
2022-09-11T18:13:59.984Z,20.00
2022-09-11T18:16:26.719Z,19.90
2022-09-11T18:18:54.382Z,19.80
2022-09-11T18:21:21.572Z,19.70
2022-09-11T18:23:49.731Z,19.60
2022-09-11T18:26:26.252Z,19.50
2022-09-11T18:29:00.210Z,19.50
2022-09-11T18:31:30.170Z,19.40
2022-09-11T18:34:00.639Z,19.30
2022-09-11T18:36:29.725Z,19.20
2022-09-11T18:39:02.046Z,19.20
2022-09-11T18:41:32.919Z,19.10
2022-09-11T18:44:04.752Z,19.10
2022-09-11T18:46:31.899Z,19.00
2022-09-11T18:49:00.020Z,18.90
2022-09-11T18:51:27.764Z,18.90
2022-09-11T18:53:55.844Z,18.90
2022-09-11T18:56:29.642Z,18.80
2022-09-11T18:58:56.557Z,18.80
2022-09-11T19:01:29.473Z,18.70
2022-09-11T19:03:56.595Z,18.70
2022-09-11T19:06:27.351Z,18.70
2022-09-11T19:08:55.716Z,18.60
2022-09-11T19:11:26.255Z,18.50
2022-09-11T19:13:56.629Z,18.50
2022-09-11T19:16:23.453Z,18.50
2022-09-11T19:18:50.445Z,18.50
2022-09-11T19:21:22.107Z,18.40
2022-09-11T19:23:55.970Z,18.40
2022-09-11T19:26:27.268Z,18.30
2022-09-11T19:28:56.259Z,18.20
2022-09-11T19:31:25.538Z,18.20
2022-09-11T19:33:54.571Z,18.10
2022-09-11T19:36:25.127Z,18.10
2022-09-11T19:38:55.716Z,18.10
2022-09-11T19:41:25.886Z,18.00
2022-09-11T19:43:54.070Z,18.00
2022-09-11T19:46:27.189Z,17.90
2022-09-11T19:49:00.324Z,17.90
2022-09-11T19:51:31.788Z,17.90
2022-09-11T19:54:02.524Z,17.80
2022-09-11T19:56:31.571Z,17.80
2022-09-11T19:58:59.801Z,17.80
2022-09-11T20:01:30.038Z,17.70
2022-09-11T20:04:00.372Z,17.70
2022-09-11T20:06:31.944Z,17.70
2022-09-11T20:09:27.281Z,17.60
2022-09-11T20:11:47.432Z,17.60
2022-09-11T20:14:14.317Z,17.60
2022-09-11T20:16:41.522Z,17.50
2022-09-11T20:19:10.279Z,17.50
2022-09-11T20:21:37.669Z,17.50
2022-09-11T20:24:06.299Z,17.40
2022-09-11T20:26:33.946Z,17.30
2022-09-11T20:29:06.850Z,17.40
2022-09-11T20:31:46.426Z,17.30
2022-09-11T20:34:18.309Z,17.30
2022-09-11T20:36:46.015Z,17.30
2022-09-11T20:39:14.311Z,17.20
2022-09-11T20:41:41.426Z,17.20
2022-09-11T20:44:08.572Z,17.20
2022-09-11T20:46:35.564Z,17.20
2022-09-11T20:49:04.010Z,17.20
2022-09-11T20:51:31.948Z,17.10
2022-09-11T20:54:00.417Z,17.10
2022-09-11T20:56:27.979Z,17.00
2022-09-11T20:58:54.934Z,17.00
2022-09-11T21:01:25.529Z,17.00
2022-09-11T21:03:57.104Z,17.00
2022-09-11T21:06:28.435Z,16.90
2022-09-11T21:08:59.597Z,16.90
2022-09-11T21:11:29.112Z,16.90
2022-09-11T21:13:55.822Z,16.80
2022-09-11T21:16:23.173Z,16.80
2022-09-11T21:18:56.980Z,16.80
2022-09-11T21:21:25.324Z,16.80
2022-09-11T21:24:04.696Z,16.70
2022-09-11T21:26:33.703Z,16.70
2022-09-11T21:29:04.576Z,16.60
2022-09-11T21:31:31.614Z,16.50
2022-09-11T21:34:00.031Z,16.50
2022-09-11T21:36:27.255Z,16.50
2022-09-11T21:38:54.255Z,16.50
2022-09-11T21:41:21.080Z,16.50
2022-09-11T21:43:47.825Z,16.40
2022-09-11T21:46:14.654Z,16.40
2022-09-11T21:48:42.279Z,16.40
2022-09-11T21:51:17.146Z,16.40
2022-09-11T21:53:47.299Z,16.30
2022-09-11T21:56:29.016Z,16.30
2022-09-11T21:58:56.390Z,16.20
2022-09-11T22:01:25.622Z,16.20
2022-09-11T22:03:54.133Z,16.20
2022-09-11T22:06:24.375Z,16.20
2022-09-11T22:08:52.283Z,16.20
2022-09-11T22:11:19.905Z,16.10
2022-09-11T22:13:47.696Z,16.10
2022-09-11T22:16:19.811Z,16.10
2022-09-11T22:18:54.167Z,16.10
2022-09-11T22:21:21.155Z,16.00
2022-09-11T22:23:47.980Z,15.90
2022-09-11T22:26:21.008Z,15.90
2022-09-11T22:28:47.888Z,15.90
2022-09-11T22:31:23.586Z,15.90
2022-09-11T22:33:50.878Z,15.90
2022-09-11T22:36:26.880Z,15.90
2022-09-11T22:38:54.943Z,15.80
2022-09-11T22:41:22.839Z,15.80
2022-09-11T22:43:50.094Z,15.80
2022-09-11T22:46:20.714Z,15.80
2022-09-11T22:48:48.674Z,15.90
2022-09-11T22:51:16.613Z,15.80
2022-09-11T22:53:43.672Z,15.80
2022-09-11T22:56:11.291Z,15.80
2022-09-11T22:58:38.417Z,15.80
2022-09-11T23:01:08.718Z,15.80
2022-09-11T23:03:35.900Z,15.80
2022-09-11T23:06:22.401Z,15.80
2022-09-11T23:08:49.893Z,15.80
2022-09-11T23:11:20.224Z,15.70
2022-09-11T23:13:49.406Z,15.70
2022-09-11T23:16:24.995Z,15.70
2022-09-11T23:19:02.930Z,15.60
2022-09-11T23:21:32.901Z,15.60
2022-09-11T23:24:00.845Z,15.60
2022-09-11T23:26:29.574Z,15.50
2022-09-11T23:28:56.640Z,15.50
2022-09-11T23:31:32.666Z,15.50
2022-09-11T23:34:07.476Z,15.50
2022-09-11T23:36:36.294Z,15.50
2022-09-11T23:39:03.891Z,15.50
2022-09-11T23:41:31.939Z,15.50
2022-09-11T23:43:59.344Z,15.50
2022-09-11T23:46:26.699Z,15.40
2022-09-11T23:48:53.554Z,15.40
2022-09-11T23:51:21.136Z,15.40
2022-09-11T23:53:51.360Z,15.30
2022-09-11T23:56:18.936Z,15.40
2022-09-11T23:58:45.739Z,15.40
